sensor_id;sensor_type;location;lat;lon;timestamp;P1;durP1;ratioP1;P2;durP2;ratioP2
29248;SDS011;16273;51.234;7.616;2023-03-23T00:02:17;5.70;;;3.15;;
29248;SDS011;16273;51.234;7.616;2023-03-23T00:05:06;6.43;;;3.58;;
29248;SDS011;16273;51.234;7.616;2023-03-23T00:07:52;8.32;;;3.78;;
29248;SDS011;16273;51.234;7.616;2023-03-23T00:10:40;10.13;;;3.72;;
29248;SDS011;16273;51.234;7.616;2023-03-23T00:13:27;5.45;;;3.35;;
29248;SDS011;16273;51.234;7.616;2023-03-23T00:16:13;6.07;;;3.70;;
29248;SDS011;16273;51.234;7.616;2023-03-23T00:19:05;6.78;;;4.28;;
29248;SDS011;16273;51.234;7.616;2023-03-23T00:21:51;6.40;;;3.80;;
29248;SDS011;16273;51.234;7.616;2023-03-23T00:24:39;5.07;;;3.25;;
29248;SDS011;16273;51.234;7.616;2023-03-23T00:27:24;10.05;;;4.68;;
29248;SDS011;16273;51.234;7.616;2023-03-23T00:30:10;6.40;;;3.75;;
29248;SDS011;16273;51.234;7.616;2023-03-23T00:32:56;5.93;;;3.78;;
29248;SDS011;16273;51.234;7.616;2023-03-23T00:35:41;8.23;;;4.07;;
29248;SDS011;16273;51.234;7.616;2023-03-23T00:38:29;7.13;;;3.80;;
29248;SDS011;16273;51.234;7.616;2023-03-23T00:41:15;4.60;;;3.53;;
29248;SDS011;16273;51.234;7.616;2023-03-23T00:44:01;5.13;;;3.65;;
29248;SDS011;16273;51.234;7.616;2023-03-23T00:46:47;6.97;;;3.40;;
29248;SDS011;16273;51.234;7.616;2023-03-23T00:49:34;5.40;;;3.83;;
29248;SDS011;16273;51.234;7.616;2023-03-23T00:52:20;5.70;;;3.30;;
29248;SDS011;16273;51.234;7.616;2023-03-23T00:55:06;5.93;;;3.08;;
29248;SDS011;16273;51.234;7.616;2023-03-23T00:57:52;5.97;;;3.50;;
29248;SDS011;16273;51.234;7.616;2023-03-23T01:00:38;6.20;;;3.17;;
29248;SDS011;16273;51.234;7.616;2023-03-23T01:03:23;4.05;;;2.70;;
29248;SDS011;16273;51.234;7.616;2023-03-23T01:06:11;7.80;;;2.97;;
29248;SDS011;16273;51.234;7.616;2023-03-23T01:08:59;5.63;;;3.13;;
29248;SDS011;16273;51.234;7.616;2023-03-23T01:11:46;6.35;;;3.63;;
29248;SDS011;16273;51.234;7.616;2023-03-23T01:14:32;3.63;;;2.65;;
29248;SDS011;16273;51.234;7.616;2023-03-23T01:17:18;4.13;;;2.80;;
29248;SDS011;16273;51.234;7.616;2023-03-23T01:20:05;5.97;;;3.53;;
29248;SDS011;16273;51.234;7.616;2023-03-23T01:22:51;5.32;;;2.60;;
29248;SDS011;16273;51.234;7.616;2023-03-23T01:25:38;5.00;;;2.80;;
29248;SDS011;16273;51.234;7.616;2023-03-23T01:28:23;6.43;;;2.80;;
29248;SDS011;16273;51.234;7.616;2023-03-23T01:31:10;4.35;;;2.70;;
29248;SDS011;16273;51.234;7.616;2023-03-23T01:33:57;5.97;;;2.47;;
29248;SDS011;16273;51.234;7.616;2023-03-23T01:36:43;4.20;;;2.78;;
29248;SDS011;16273;51.234;7.616;2023-03-23T01:39:28;5.78;;;2.28;;
29248;SDS011;16273;51.234;7.616;2023-03-23T01:42:14;6.38;;;2.60;;
29248;SDS011;16273;51.234;7.616;2023-03-23T01:45:17;6.75;;;3.00;;
29248;SDS011;16273;51.234;7.616;2023-03-23T01:48:22;6.32;;;2.63;;
29248;SDS011;16273;51.234;7.616;2023-03-23T01:51:12;3.85;;;2.90;;
29248;SDS011;16273;51.234;7.616;2023-03-23T01:54:01;6.10;;;2.83;;
29248;SDS011;16273;51.234;7.616;2023-03-23T01:56:50;3.20;;;2.90;;
29248;SDS011;16273;51.234;7.616;2023-03-23T01:59:37;3.47;;;2.40;;
29248;SDS011;16273;51.234;7.616;2023-03-23T02:02:24;4.03;;;2.83;;
29248;SDS011;16273;51.234;7.616;2023-03-23T02:05:11;5.07;;;3.00;;
29248;SDS011;16273;51.234;7.616;2023-03-23T02:07:58;7.70;;;3.00;;
29248;SDS011;16273;51.234;7.616;2023-03-23T02:10:48;6.05;;;2.90;;
29248;SDS011;16273;51.234;7.616;2023-03-23T02:13:33;4.78;;;2.95;;
29248;SDS011;16273;51.234;7.616;2023-03-23T02:36:32;7.05;;;3.47;;
29248;SDS011;16273;51.234;7.616;2023-03-23T02:39:21;5.35;;;3.67;;
29248;SDS011;16273;51.234;7.616;2023-03-23T02:42:09;5.63;;;3.45;;
29248;SDS011;16273;51.234;7.616;2023-03-23T02:44:55;4.90;;;3.47;;
29248;SDS011;16273;51.234;7.616;2023-03-23T02:47:41;7.82;;;3.65;;
29248;SDS011;16273;51.234;7.616;2023-03-23T02:50:27;5.63;;;3.95;;
29248;SDS011;16273;51.234;7.616;2023-03-23T02:53:14;5.25;;;3.60;;
29248;SDS011;16273;51.234;7.616;2023-03-23T02:56:01;6.18;;;3.55;;
29248;SDS011;16273;51.234;7.616;2023-03-23T02:58:48;7.20;;;3.72;;
29248;SDS011;16273;51.234;7.616;2023-03-23T03:04:24;3.90;;;3.40;;
29248;SDS011;16273;51.234;7.616;2023-03-23T03:07:55;8.98;;;4.43;;
29248;SDS011;16273;51.234;7.616;2023-03-23T03:10:26;4.43;;;3.65;;
29248;SDS011;16273;51.234;7.616;2023-03-23T03:21:51;5.18;;;3.60;;
29248;SDS011;16273;51.234;7.616;2023-03-23T03:24:38;9.90;;;3.90;;
29248;SDS011;16273;51.234;7.616;2023-03-23T03:27:23;5.75;;;3.75;;
29248;SDS011;16273;51.234;7.616;2023-03-23T03:30:10;6.90;;;4.05;;
29248;SDS011;16273;51.234;7.616;2023-03-23T03:32:57;5.38;;;3.60;;
29248;SDS011;16273;51.234;7.616;2023-03-23T03:35:45;4.07;;;3.58;;
29248;SDS011;16273;51.234;7.616;2023-03-23T03:38:40;4.90;;;3.90;;
29248;SDS011;16273;51.234;7.616;2023-03-23T03:41:27;9.50;;;4.07;;
29248;SDS011;16273;51.234;7.616;2023-03-23T03:44:12;5.63;;;3.28;;
29248;SDS011;16273;51.234;7.616;2023-03-23T03:46:58;5.80;;;3.83;;
29248;SDS011;16273;51.234;7.616;2023-03-23T03:49:43;4.82;;;3.28;;
29248;SDS011;16273;51.234;7.616;2023-03-23T03:52:29;4.15;;;3.38;;
29248;SDS011;16273;51.234;7.616;2023-03-23T03:55:14;6.95;;;4.05;;
29248;SDS011;16273;51.234;7.616;2023-03-23T03:58:02;7.90;;;4.10;;
29248;SDS011;16273;51.234;7.616;2023-03-23T04:00:49;6.45;;;3.47;;
29248;SDS011;16273;51.234;7.616;2023-03-23T04:03:35;5.10;;;3.45;;
29248;SDS011;16273;51.234;7.616;2023-03-23T04:06:21;6.03;;;3.88;;
29248;SDS011;16273;51.234;7.616;2023-03-23T04:09:06;6.63;;;4.28;;
29248;SDS011;16273;51.234;7.616;2023-03-23T04:11:52;5.85;;;4.07;;
29248;SDS011;16273;51.234;7.616;2023-03-23T04:14:40;7.38;;;4.80;;
29248;SDS011;16273;51.234;7.616;2023-03-23T04:17:25;7.53;;;4.38;;
29248;SDS011;16273;51.234;7.616;2023-03-23T04:20:12;5.63;;;3.92;;
29248;SDS011;16273;51.234;7.616;2023-03-23T04:23:02;4.78;;;3.75;;
29248;SDS011;16273;51.234;7.616;2023-03-23T04:25:49;4.15;;;3.47;;
29248;SDS011;16273;51.234;7.616;2023-03-23T04:28:35;6.68;;;4.15;;
29248;SDS011;16273;51.234;7.616;2023-03-23T04:31:21;7.80;;;3.40;;
29248;SDS011;16273;51.234;7.616;2023-03-23T04:34:09;12.02;;;3.90;;
29248;SDS011;16273;51.234;7.616;2023-03-23T04:36:58;4.65;;;3.75;;
29248;SDS011;16273;51.234;7.616;2023-03-23T04:39:44;4.88;;;3.67;;
29248;SDS011;16273;51.234;7.616;2023-03-23T04:42:30;5.00;;;3.75;;
29248;SDS011;16273;51.234;7.616;2023-03-23T04:45:17;7.47;;;4.10;;
29248;SDS011;16273;51.234;7.616;2023-03-23T04:48:07;4.90;;;3.90;;
29248;SDS011;16273;51.234;7.616;2023-03-23T04:50:53;5.47;;;3.65;;
29248;SDS011;16273;51.234;7.616;2023-03-23T04:53:39;4.93;;;3.53;;
29248;SDS011;16273;51.234;7.616;2023-03-23T04:56:24;6.28;;;4.18;;
29248;SDS011;16273;51.234;7.616;2023-03-23T04:59:10;4.78;;;3.50;;
29248;SDS011;16273;51.234;7.616;2023-03-23T05:01:58;11.50;;;4.53;;
29248;SDS011;16273;51.234;7.616;2023-03-23T05:04:44;6.78;;;3.88;;
29248;SDS011;16273;51.234;7.616;2023-03-23T05:07:29;7.00;;;4.38;;
29248;SDS011;16273;51.234;7.616;2023-03-23T05:10:15;5.40;;;3.97;;
29248;SDS011;16273;51.234;7.616;2023-03-23T05:13:01;4.75;;;3.80;;
29248;SDS011;16273;51.234;7.616;2023-03-23T05:15:47;4.65;;;4.07;;
29248;SDS011;16273;51.234;7.616;2023-03-23T05:18:33;5.63;;;4.15;;
29248;SDS011;16273;51.234;7.616;2023-03-23T05:21:19;6.80;;;4.05;;
29248;SDS011;16273;51.234;7.616;2023-03-23T05:24:05;7.68;;;4.57;;
29248;SDS011;16273;51.234;7.616;2023-03-23T05:26:51;5.20;;;3.72;;
29248;SDS011;16273;51.234;7.616;2023-03-23T05:29:37;5.25;;;4.07;;
29248;SDS011;16273;51.234;7.616;2023-03-23T05:32:26;8.25;;;4.40;;
29248;SDS011;16273;51.234;7.616;2023-03-23T05:35:14;6.85;;;3.90;;
29248;SDS011;16273;51.234;7.616;2023-03-23T05:38:01;5.18;;;3.80;;
29248;SDS011;16273;51.234;7.616;2023-03-23T05:40:48;5.50;;;3.90;;
29248;SDS011;16273;51.234;7.616;2023-03-23T05:43:34;6.53;;;4.30;;
29248;SDS011;16273;51.234;7.616;2023-03-23T05:46:19;5.78;;;4.63;;
29248;SDS011;16273;51.234;7.616;2023-03-23T05:49:05;6.18;;;4.45;;
29248;SDS011;16273;51.234;7.616;2023-03-23T05:51:51;5.93;;;4.38;;
29248;SDS011;16273;51.234;7.616;2023-03-23T05:54:37;7.72;;;4.60;;
29248;SDS011;16273;51.234;7.616;2023-03-23T05:57:22;5.97;;;4.13;;
29248;SDS011;16273;51.234;7.616;2023-03-23T06:00:08;6.70;;;4.03;;
29248;SDS011;16273;51.234;7.616;2023-03-23T06:03:03;5.40;;;4.07;;
29248;SDS011;16273;51.234;7.616;2023-03-23T06:05:49;6.63;;;4.65;;
29248;SDS011;16273;51.234;7.616;2023-03-23T06:08:35;8.48;;;4.80;;
29248;SDS011;16273;51.234;7.616;2023-03-23T06:11:23;7.03;;;5.10;;
29248;SDS011;16273;51.234;7.616;2023-03-23T06:14:09;6.50;;;4.90;;
29248;SDS011;16273;51.234;7.616;2023-03-23T06:16:55;7.10;;;5.15;;
29248;SDS011;16273;51.234;7.616;2023-03-23T06:19:41;5.47;;;4.07;;
29248;SDS011;16273;51.234;7.616;2023-03-23T06:22:26;5.60;;;4.18;;
29248;SDS011;16273;51.234;7.616;2023-03-23T06:25:12;7.75;;;4.60;;
29248;SDS011;16273;51.234;7.616;2023-03-23T06:27:58;5.97;;;4.60;;
29248;SDS011;16273;51.234;7.616;2023-03-23T06:30:43;6.57;;;4.50;;
29248;SDS011;16273;51.234;7.616;2023-03-23T06:33:30;4.95;;;3.83;;
29248;SDS011;16273;51.234;7.616;2023-03-23T06:36:16;8.70;;;6.65;;
29248;SDS011;16273;51.234;7.616;2023-03-23T06:39:02;9.93;;;5.10;;
29248;SDS011;16273;51.234;7.616;2023-03-23T06:41:49;4.78;;;4.07;;
29248;SDS011;16273;51.234;7.616;2023-03-23T06:44:39;5.80;;;4.70;;
29248;SDS011;16273;51.234;7.616;2023-03-23T06:47:25;6.45;;;4.40;;
29248;SDS011;16273;51.234;7.616;2023-03-23T06:50:11;9.40;;;4.82;;
29248;SDS011;16273;51.234;7.616;2023-03-23T06:52:57;6.78;;;4.82;;
29248;SDS011;16273;51.234;7.616;2023-03-23T06:55:43;5.00;;;4.07;;
29248;SDS011;16273;51.234;7.616;2023-03-23T06:58:29;9.75;;;3.70;;
29248;SDS011;16273;51.234;7.616;2023-03-23T07:01:15;7.60;;;4.00;;
29248;SDS011;16273;51.234;7.616;2023-03-23T07:04:01;6.60;;;4.13;;
29248;SDS011;16273;51.234;7.616;2023-03-23T07:06:48;7.03;;;4.43;;
29248;SDS011;16273;51.234;7.616;2023-03-23T07:09:34;5.47;;;3.80;;
29248;SDS011;16273;51.234;7.616;2023-03-23T07:12:20;6.43;;;3.80;;
29248;SDS011;16273;51.234;7.616;2023-03-23T07:15:05;7.55;;;3.72;;
29248;SDS011;16273;51.234;7.616;2023-03-23T07:17:54;5.45;;;4.47;;
29248;SDS011;16273;51.234;7.616;2023-03-23T07:20:40;6.63;;;4.22;;
29248;SDS011;16273;51.234;7.616;2023-03-23T07:23:29;7.53;;;3.83;;
29248;SDS011;16273;51.234;7.616;2023-03-23T07:26:14;7.60;;;3.88;;
29248;SDS011;16273;51.234;7.616;2023-03-23T07:29:00;6.00;;;3.72;;
29248;SDS011;16273;51.234;7.616;2023-03-23T07:31:46;5.50;;;3.28;;
29248;SDS011;16273;51.234;7.616;2023-03-23T07:34:32;5.22;;;3.03;;
29248;SDS011;16273;51.234;7.616;2023-03-23T07:37:18;5.13;;;2.50;;
29248;SDS011;16273;51.234;7.616;2023-03-23T07:40:04;4.05;;;3.00;;
29248;SDS011;16273;51.234;7.616;2023-03-23T07:43:00;5.68;;;3.13;;
29248;SDS011;16273;51.234;7.616;2023-03-23T07:45:46;7.90;;;3.40;;
29248;SDS011;16273;51.234;7.616;2023-03-23T07:48:34;3.78;;;2.72;;
29248;SDS011;16273;51.234;7.616;2023-03-23T07:51:20;6.95;;;2.80;;
29248;SDS011;16273;51.234;7.616;2023-03-23T07:54:06;5.65;;;2.90;;
29248;SDS011;16273;51.234;7.616;2023-03-23T07:56:56;5.03;;;3.03;;
29248;SDS011;16273;51.234;7.616;2023-03-23T07:59:42;5.55;;;3.10;;
29248;SDS011;16273;51.234;7.616;2023-03-23T08:02:27;4.25;;;2.53;;
29248;SDS011;16273;51.234;7.616;2023-03-23T08:05:13;8.32;;;3.05;;
29248;SDS011;16273;51.234;7.616;2023-03-23T08:07:59;4.50;;;2.50;;
29248;SDS011;16273;51.234;7.616;2023-03-23T08:10:45;5.18;;;2.47;;
29248;SDS011;16273;51.234;7.616;2023-03-23T08:13:30;4.05;;;2.60;;
29248;SDS011;16273;51.234;7.616;2023-03-23T08:16:16;3.05;;;2.10;;
29248;SDS011;16273;51.234;7.616;2023-03-23T08:19:04;3.35;;;2.28;;
29248;SDS011;16273;51.234;7.616;2023-03-23T08:21:50;4.93;;;2.10;;
29248;SDS011;16273;51.234;7.616;2023-03-23T08:24:36;8.00;;;2.47;;
29248;SDS011;16273;51.234;7.616;2023-03-23T08:27:22;4.93;;;2.40;;
29248;SDS011;16273;51.234;7.616;2023-03-23T08:30:09;6.80;;;2.60;;
29248;SDS011;16273;51.234;7.616;2023-03-23T08:32:59;5.85;;;2.60;;
29248;SDS011;16273;51.234;7.616;2023-03-23T08:35:53;2.53;;;2.10;;
29248;SDS011;16273;51.234;7.616;2023-03-23T08:38:39;5.67;;;2.53;;
29248;SDS011;16273;51.234;7.616;2023-03-23T08:41:25;5.07;;;3.15;;
29248;SDS011;16273;51.234;7.616;2023-03-23T08:44:10;7.47;;;2.30;;
29248;SDS011;16273;51.234;7.616;2023-03-23T08:46:56;4.75;;;2.33;;
29248;SDS011;16273;51.234;7.616;2023-03-23T08:49:42;3.75;;;2.20;;
29248;SDS011;16273;51.234;7.616;2023-03-23T08:52:28;7.60;;;2.38;;
29248;SDS011;16273;51.234;7.616;2023-03-23T08:55:14;4.00;;;2.42;;
29248;SDS011;16273;51.234;7.616;2023-03-23T08:58:00;4.35;;;2.15;;
29248;SDS011;16273;51.234;7.616;2023-03-23T09:00:46;3.08;;;2.47;;
29248;SDS011;16273;51.234;7.616;2023-03-23T09:03:33;4.93;;;2.33;;
29248;SDS011;16273;51.234;7.616;2023-03-23T09:06:20;4.07;;;1.90;;
29248;SDS011;16273;51.234;7.616;2023-03-23T09:09:06;5.93;;;2.15;;
29248;SDS011;16273;51.234;7.616;2023-03-23T09:11:52;5.78;;;2.47;;
29248;SDS011;16273;51.234;7.616;2023-03-23T09:14:38;3.38;;;2.00;;
29248;SDS011;16273;51.234;7.616;2023-03-23T09:17:24;3.20;;;1.92;;
29248;SDS011;16273;51.234;7.616;2023-03-23T09:20:10;2.90;;;2.08;;
29248;SDS011;16273;51.234;7.616;2023-03-23T09:22:57;4.28;;;1.95;;
29248;SDS011;16273;51.234;7.616;2023-03-23T09:25:43;4.40;;;2.25;;
29248;SDS011;16273;51.234;7.616;2023-03-23T09:28:29;5.95;;;1.80;;
29248;SDS011;16273;51.234;7.616;2023-03-23T09:31:16;7.30;;;2.25;;
29248;SDS011;16273;51.234;7.616;2023-03-23T09:34:02;6.72;;;2.08;;
29248;SDS011;16273;51.234;7.616;2023-03-23T09:36:49;7.20;;;2.10;;
29248;SDS011;16273;51.234;7.616;2023-03-23T09:39:35;4.18;;;2.15;;
29248;SDS011;16273;51.234;7.616;2023-03-23T09:42:40;4.45;;;1.77;;
29248;SDS011;16273;51.234;7.616;2023-03-23T09:54:19;7.25;;;2.55;;
29248;SDS011;16273;51.234;7.616;2023-03-23T10:00:10;5.65;;;2.35;;
29248;SDS011;16273;51.234;7.616;2023-03-23T10:03:00;6.35;;;2.20;;
29248;SDS011;16273;51.234;7.616;2023-03-23T10:05:48;6.68;;;2.28;;
29248;SDS011;16273;51.234;7.616;2023-03-23T10:08:34;4.45;;;1.95;;
29248;SDS011;16273;51.234;7.616;2023-03-23T10:14:47;6.88;;;1.80;;
29248;SDS011;16273;51.234;7.616;2023-03-23T10:17:42;3.50;;;2.40;;
29248;SDS011;16273;51.234;7.616;2023-03-23T10:26:06;3.75;;;1.95;;
29248;SDS011;16273;51.234;7.616;2023-03-23T10:28:58;7.05;;;2.00;;
29248;SDS011;16273;51.234;7.616;2023-03-23T10:32:36;6.57;;;2.35;;
29248;SDS011;16273;51.234;7.616;2023-03-23T10:34:55;4.82;;;2.05;;
29248;SDS011;16273;51.234;7.616;2023-03-23T10:37:44;3.25;;;2.00;;
29248;SDS011;16273;51.234;7.616;2023-03-23T10:40:32;8.10;;;2.13;;
29248;SDS011;16273;51.234;7.616;2023-03-23T10:43:20;5.55;;;1.92;;
29248;SDS011;16273;51.234;7.616;2023-03-23T10:46:17;6.50;;;1.95;;
29248;SDS011;16273;51.234;7.616;2023-03-23T10:49:11;3.65;;;1.80;;
29248;SDS011;16273;51.234;7.616;2023-03-23T10:52:01;6.95;;;2.53;;
29248;SDS011;16273;51.234;7.616;2023-03-23T10:54:52;5.00;;;2.33;;
29248;SDS011;16273;51.234;7.616;2023-03-23T10:57:44;7.57;;;1.90;;
29248;SDS011;16273;51.234;7.616;2023-03-23T11:00:32;5.72;;;2.17;;
29248;SDS011;16273;51.234;7.616;2023-03-23T11:06:05;7.25;;;1.88;;
29248;SDS011;16273;51.234;7.616;2023-03-23T11:08:55;7.13;;;2.00;;
29248;SDS011;16273;51.234;7.616;2023-03-23T11:11:43;4.85;;;1.80;;
29248;SDS011;16273;51.234;7.616;2023-03-23T11:14:30;9.45;;;2.00;;
29248;SDS011;16273;51.234;7.616;2023-03-23T11:17:23;7.00;;;2.70;;
29248;SDS011;16273;51.234;7.616;2023-03-23T11:20:12;4.60;;;2.13;;
29248;SDS011;16273;51.234;7.616;2023-03-23T11:22:58;4.90;;;1.85;;
29248;SDS011;16273;51.234;7.616;2023-03-23T11:25:50;4.30;;;1.95;;
29248;SDS011;16273;51.234;7.616;2023-03-23T11:28:38;6.60;;;2.25;;
29248;SDS011;16273;51.234;7.616;2023-03-23T11:31:29;8.27;;;2.47;;
29248;SDS011;16273;51.234;7.616;2023-03-23T11:34:20;4.80;;;2.05;;
29248;SDS011;16273;51.234;7.616;2023-03-23T11:43:08;4.82;;;2.63;;
29248;SDS011;16273;51.234;7.616;2023-03-23T11:46:05;4.47;;;2.55;;
29248;SDS011;16273;51.234;7.616;2023-03-23T11:48:59;3.53;;;2.10;;
29248;SDS011;16273;51.234;7.616;2023-03-23T11:51:50;5.70;;;2.33;;
29248;SDS011;16273;51.234;7.616;2023-03-23T11:54:38;6.18;;;2.67;;
29248;SDS011;16273;51.234;7.616;2023-03-23T11:57:25;9.02;;;2.55;;
29248;SDS011;16273;51.234;7.616;2023-03-23T12:00:18;5.85;;;2.65;;
29248;SDS011;16273;51.234;7.616;2023-03-23T12:06:19;5.68;;;2.25;;
29248;SDS011;16273;51.234;7.616;2023-03-23T12:12:12;5.28;;;2.70;;
29248;SDS011;16273;51.234;7.616;2023-03-23T12:27:47;4.13;;;2.50;;
